Pellston Regional Airport of Emmet County Airport
KPLN : rendu visible

Aérodrome :











RETROUVEZ-NOUS SUR...

 
LOGIN :

S'inscrire | Disclaimer

   EN    FR    IT 

 









Légende :    VFR   VFR Marginal   IFR   IFR Intensif   IFR Très Intensif
Visi : 
Plafond : 
>= 8 km
>= 3000ft
5 à 8 km
1000 à 3000 ft
1500m à 5 km
500 à 1000 ft
800 à 1500m
200 à 500 ft
< 800m
< 200 ft
Symboles :   Orages  Brouillard  Fortes neiges  Fortes précipitations  Vent > 20 kt






- Altitude de l'aérodrome : 721 ft
- Code IATA : PLN


KPLN - Pellston Regional of Emmet County

DERNIER METAR :
  • 222254Z AUTO 26005KT 10SM OVC023 M01/M06 A3006 RMK AO2 SLP189 T10111056

METARs EXPIRÉS :
  • 222154Z AUTO 27007KT 10SM OVC023 M01/M06 A3006 RMK AO2 SLP189 T10111061
  • 222054Z AUTO 27007KT 10SM OVC023 M01/M06 A3005 RMK AO2 SLP184 T10111056 58007

TAF KPLN
Valide du 22 à 22h jusqu'au 23 à 18h UTC


222140Z 2222/2318 29008KT P6SM BKN028
FM230000 26008KT P6SM SCT250
FM230700 24010G20KT P6SM FEW200
FM231400 23013G25KT P6SM FEW250



MET'MAP, la Météo Aéronautique d'un coup d'oeil ! - Copyright ORBIFLY Décembre 2007 - Disclaimer

ORBIFLY MET'MAP TEAM :

Programmation & Développement : Alexandra Zaïnal
Conception & Développement : Baudouin d'Aumeries
Co-Programmation & Développement : Marc-Olivier Méhu
Soutien technique & logistique : Manuel Goepfert

Contact : metmap@orbifly.com




SOURCES & CREDITS :

   NOAA       Earth
Advisory